sensor_id;sensor_type;location;lat;lon;timestamp;P1;durP1;ratioP1;P2;durP2;ratioP2
46897;SDS011;32646;50.958;6.258;2024-01-11T00:02:24;10.00;;;5.90;;
46897;SDS011;32646;50.958;6.258;2024-01-11T00:04:51;9.38;;;5.97;;
46897;SDS011;32646;50.958;6.258;2024-01-11T00:07:18;13.20;;;5.38;;
46897;SDS011;32646;50.958;6.258;2024-01-11T00:09:44;12.77;;;6.35;;
46897;SDS011;32646;50.958;6.258;2024-01-11T00:12:11;10.50;;;5.63;;
46897;SDS011;32646;50.958;6.258;2024-01-11T00:14:38;10.13;;;5.50;;
46897;SDS011;32646;50.958;6.258;2024-01-11T00:17:04;9.68;;;4.72;;
46897;SDS011;32646;50.958;6.258;2024-01-11T00:19:31;11.20;;;5.53;;
46897;SDS011;32646;50.958;6.258;2024-01-11T00:21:58;11.98;;;5.65;;
46897;SDS011;32646;50.958;6.258;2024-01-11T00:24:24;11.98;;;4.70;;
46897;SDS011;32646;50.958;6.258;2024-01-11T00:26:51;8.75;;;3.88;;
46897;SDS011;32646;50.958;6.258;2024-01-11T00:29:17;8.02;;;5.00;;
46897;SDS011;32646;50.958;6.258;2024-01-11T00:31:44;13.48;;;6.70;;
46897;SDS011;32646;50.958;6.258;2024-01-11T00:34:11;14.38;;;6.47;;
46897;SDS011;32646;50.958;6.258;2024-01-11T00:36:37;9.07;;;4.32;;
46897;SDS011;32646;50.958;6.258;2024-01-11T00:39:04;16.42;;;5.10;;
46897;SDS011;32646;50.958;6.258;2024-01-11T00:41:30;19.13;;;5.53;;
46897;SDS011;32646;50.958;6.258;2024-01-11T00:43:57;8.23;;;4.53;;
46897;SDS011;32646;50.958;6.258;2024-01-11T00:46:24;11.82;;;5.38;;
46897;SDS011;32646;50.958;6.258;2024-01-11T00:48:50;10.10;;;5.25;;
46897;SDS011;32646;50.958;6.258;2024-01-11T00:51:21;12.05;;;6.03;;
46897;SDS011;32646;50.958;6.258;2024-01-11T00:53:48;8.65;;;5.10;;
46897;SDS011;32646;50.958;6.258;2024-01-11T00:56:15;8.82;;;4.97;;
46897;SDS011;32646;50.958;6.258;2024-01-11T00:58:42;13.70;;;5.63;;
46897;SDS011;32646;50.958;6.258;2024-01-11T01:01:09;9.18;;;5.43;;
46897;SDS011;32646;50.958;6.258;2024-01-11T01:03:36;15.88;;;6.53;;
46897;SDS011;32646;50.958;6.258;2024-01-11T01:06:03;13.68;;;6.25;;
46897;SDS011;32646;50.958;6.258;2024-01-11T01:08:30;15.02;;;4.95;;
46897;SDS011;32646;50.958;6.258;2024-01-11T01:10:57;8.85;;;5.05;;
46897;SDS011;32646;50.958;6.258;2024-01-11T01:13:24;9.07;;;5.32;;
46897;SDS011;32646;50.958;6.258;2024-01-11T01:15:51;15.07;;;5.90;;
46897;SDS011;32646;50.958;6.258;2024-01-11T01:18:18;17.77;;;5.40;;
46897;SDS011;32646;50.958;6.258;2024-01-11T01:20:44;10.05;;;4.50;;
46897;SDS011;32646;50.958;6.258;2024-01-11T01:23:11;11.93;;;5.18;;
46897;SDS011;32646;50.958;6.258;2024-01-11T01:25:38;13.38;;;5.28;;
46897;SDS011;32646;50.958;6.258;2024-01-11T01:28:04;12.05;;;4.70;;
46897;SDS011;32646;50.958;6.258;2024-01-11T01:30:31;10.18;;;5.03;;
46897;SDS011;32646;50.958;6.258;2024-01-11T01:32:58;9.82;;;4.43;;
46897;SDS011;32646;50.958;6.258;2024-01-11T01:35:24;10.95;;;5.05;;
46897;SDS011;32646;50.958;6.258;2024-01-11T01:37:51;9.93;;;4.65;;
46897;SDS011;32646;50.958;6.258;2024-01-11T01:40:18;12.27;;;6.57;;
46897;SDS011;32646;50.958;6.258;2024-01-11T01:42:45;13.60;;;5.22;;
46897;SDS011;32646;50.958;6.258;2024-01-11T01:45:12;9.90;;;4.95;;
46897;SDS011;32646;50.958;6.258;2024-01-11T01:47:40;6.88;;;4.40;;
46897;SDS011;32646;50.958;6.258;2024-01-11T01:50:09;10.40;;;4.32;;
46897;SDS011;32646;50.958;6.258;2024-01-11T01:52:37;13.85;;;5.72;;
46897;SDS011;32646;50.958;6.258;2024-01-11T01:55:06;13.68;;;5.43;;
46897;SDS011;32646;50.958;6.258;2024-01-11T01:57:36;10.77;;;4.53;;
46897;SDS011;32646;50.958;6.258;2024-01-11T02:00:03;20.70;;;4.80;;
46897;SDS011;32646;50.958;6.258;2024-01-11T02:02:31;13.70;;;6.00;;
46897;SDS011;32646;50.958;6.258;2024-01-11T02:05:00;11.35;;;4.50;;
46897;SDS011;32646;50.958;6.258;2024-01-11T02:07:27;8.90;;;5.13;;
46897;SDS011;32646;50.958;6.258;2024-01-11T02:09:54;14.00;;;5.93;;
46897;SDS011;32646;50.958;6.258;2024-01-11T02:12:21;9.88;;;4.03;;
46897;SDS011;32646;50.958;6.258;2024-01-11T02:14:49;9.77;;;4.90;;
46897;SDS011;32646;50.958;6.258;2024-01-11T02:17:16;13.63;;;6.03;;
46897;SDS011;32646;50.958;6.258;2024-01-11T02:19:43;10.48;;;5.68;;
46897;SDS011;32646;50.958;6.258;2024-01-11T02:22:12;13.60;;;5.97;;
46897;SDS011;32646;50.958;6.258;2024-01-11T02:24:47;9.68;;;5.32;;
46897;SDS011;32646;50.958;6.258;2024-01-11T02:27:14;11.38;;;5.70;;
46897;SDS011;32646;50.958;6.258;2024-01-11T02:29:41;10.25;;;5.75;;
46897;SDS011;32646;50.958;6.258;2024-01-11T02:32:07;9.73;;;4.80;;
46897;SDS011;32646;50.958;6.258;2024-01-11T02:34:34;13.00;;;5.43;;
46897;SDS011;32646;50.958;6.258;2024-01-11T02:37:02;10.73;;;5.07;;
46897;SDS011;32646;50.958;6.258;2024-01-11T02:39:28;10.50;;;5.72;;
46897;SDS011;32646;50.958;6.258;2024-01-11T02:41:56;6.72;;;3.72;;
46897;SDS011;32646;50.958;6.258;2024-01-11T02:44:23;11.82;;;4.53;;
46897;SDS011;32646;50.958;6.258;2024-01-11T02:46:50;10.85;;;4.32;;
46897;SDS011;32646;50.958;6.258;2024-01-11T02:49:17;10.95;;;5.32;;
46897;SDS011;32646;50.958;6.258;2024-01-11T02:51:44;9.15;;;5.28;;
46897;SDS011;32646;50.958;6.258;2024-01-11T02:54:10;14.43;;;4.65;;
46897;SDS011;32646;50.958;6.258;2024-01-11T02:56:37;14.05;;;4.05;;
46897;SDS011;32646;50.958;6.258;2024-01-11T02:59:04;11.25;;;5.05;;
46897;SDS011;32646;50.958;6.258;2024-01-11T03:01:30;13.18;;;5.90;;
46897;SDS011;32646;50.958;6.258;2024-01-11T03:03:57;11.05;;;4.20;;
46897;SDS011;32646;50.958;6.258;2024-01-11T03:06:25;10.30;;;4.40;;
46897;SDS011;32646;50.958;6.258;2024-01-11T03:08:52;9.32;;;5.05;;
46897;SDS011;32646;50.958;6.258;2024-01-11T03:11:18;17.90;;;5.78;;
46897;SDS011;32646;50.958;6.258;2024-01-11T03:13:45;9.88;;;4.45;;
46897;SDS011;32646;50.958;6.258;2024-01-11T03:16:12;10.93;;;5.65;;
46897;SDS011;32646;50.958;6.258;2024-01-11T03:18:38;16.33;;;5.72;;
46897;SDS011;32646;50.958;6.258;2024-01-11T03:21:05;10.95;;;4.88;;
46897;SDS011;32646;50.958;6.258;2024-01-11T03:23:32;13.18;;;5.07;;
46897;SDS011;32646;50.958;6.258;2024-01-11T03:25:59;12.73;;;4.90;;
46897;SDS011;32646;50.958;6.258;2024-01-11T03:28:25;10.70;;;5.05;;
46897;SDS011;32646;50.958;6.258;2024-01-11T03:30:52;15.05;;;6.70;;
46897;SDS011;32646;50.958;6.258;2024-01-11T03:33:19;11.55;;;4.97;;
46897;SDS011;32646;50.958;6.258;2024-01-11T03:35:45;11.50;;;5.53;;
46897;SDS011;32646;50.958;6.258;2024-01-11T03:38:12;12.43;;;4.72;;
46897;SDS011;32646;50.958;6.258;2024-01-11T03:40:39;10.52;;;4.63;;
46897;SDS011;32646;50.958;6.258;2024-01-11T03:43:05;17.02;;;4.35;;
46897;SDS011;32646;50.958;6.258;2024-01-11T03:45:32;9.50;;;4.18;;
46897;SDS011;32646;50.958;6.258;2024-01-11T03:47:59;13.43;;;5.10;;
46897;SDS011;32646;50.958;6.258;2024-01-11T03:50:25;9.90;;;5.18;;
46897;SDS011;32646;50.958;6.258;2024-01-11T03:52:52;16.63;;;5.63;;
46897;SDS011;32646;50.958;6.258;2024-01-11T03:55:19;8.30;;;4.63;;
46897;SDS011;32646;50.958;6.258;2024-01-11T03:57:45;13.07;;;6.60;;
46897;SDS011;32646;50.958;6.258;2024-01-11T04:00:12;13.32;;;5.47;;
46897;SDS011;32646;50.958;6.258;2024-01-11T04:02:39;13.52;;;5.68;;
46897;SDS011;32646;50.958;6.258;2024-01-11T04:05:06;12.20;;;4.63;;
46897;SDS011;32646;50.958;6.258;2024-01-11T04:07:33;20.60;;;6.25;;
46897;SDS011;32646;50.958;6.258;2024-01-11T04:09:59;15.20;;;7.13;;
46897;SDS011;32646;50.958;6.258;2024-01-11T04:12:26;9.40;;;4.72;;
46897;SDS011;32646;50.958;6.258;2024-01-11T04:14:52;13.90;;;6.90;;
46897;SDS011;32646;50.958;6.258;2024-01-11T04:17:19;8.20;;;4.97;;
46897;SDS011;32646;50.958;6.258;2024-01-11T04:19:46;12.07;;;5.38;;
46897;SDS011;32646;50.958;6.258;2024-01-11T04:22:12;9.95;;;6.20;;
46897;SDS011;32646;50.958;6.258;2024-01-11T04:24:41;13.95;;;5.13;;
46897;SDS011;32646;50.958;6.258;2024-01-11T04:27:09;12.73;;;6.40;;
46897;SDS011;32646;50.958;6.258;2024-01-11T04:29:35;10.88;;;6.72;;
46897;SDS011;32646;50.958;6.258;2024-01-11T04:32:02;10.07;;;5.88;;
46897;SDS011;32646;50.958;6.258;2024-01-11T04:34:29;12.20;;;6.05;;
46897;SDS011;32646;50.958;6.258;2024-01-11T04:36:56;13.13;;;6.38;;
46897;SDS011;32646;50.958;6.258;2024-01-11T04:39:23;12.88;;;4.43;;
46897;SDS011;32646;50.958;6.258;2024-01-11T04:41:49;22.50;;;8.82;;
46897;SDS011;32646;50.958;6.258;2024-01-11T04:44:16;15.57;;;6.80;;
46897;SDS011;32646;50.958;6.258;2024-01-11T04:46:43;9.70;;;5.78;;
46897;SDS011;32646;50.958;6.258;2024-01-11T04:49:09;8.07;;;4.97;;
46897;SDS011;32646;50.958;6.258;2024-01-11T04:51:36;17.75;;;7.72;;
46897;SDS011;32646;50.958;6.258;2024-01-11T04:54:03;15.27;;;6.63;;
46897;SDS011;32646;50.958;6.258;2024-01-11T04:56:29;13.57;;;6.28;;
46897;SDS011;32646;50.958;6.258;2024-01-11T04:58:56;8.95;;;4.97;;
46897;SDS011;32646;50.958;6.258;2024-01-11T05:01:23;12.05;;;5.22;;
46897;SDS011;32646;50.958;6.258;2024-01-11T05:03:50;12.82;;;5.65;;
46897;SDS011;32646;50.958;6.258;2024-01-11T05:06:20;17.02;;;6.68;;
46897;SDS011;32646;50.958;6.258;2024-01-11T05:08:48;12.45;;;5.88;;
46897;SDS011;32646;50.958;6.258;2024-01-11T05:11:17;18.20;;;6.43;;
46897;SDS011;32646;50.958;6.258;2024-01-11T05:13:48;14.77;;;6.20;;
46897;SDS011;32646;50.958;6.258;2024-01-11T05:16:19;16.05;;;6.10;;
46897;SDS011;32646;50.958;6.258;2024-01-11T05:18:46;8.13;;;4.80;;
46897;SDS011;32646;50.958;6.258;2024-01-11T05:21:13;11.10;;;5.30;;
46897;SDS011;32646;50.958;6.258;2024-01-11T05:23:40;14.13;;;6.90;;
46897;SDS011;32646;50.958;6.258;2024-01-11T05:26:07;18.52;;;6.53;;
46897;SDS011;32646;50.958;6.258;2024-01-11T05:28:35;11.25;;;6.53;;
46897;SDS011;32646;50.958;6.258;2024-01-11T05:31:01;11.82;;;5.97;;
46897;SDS011;32646;50.958;6.258;2024-01-11T05:33:28;18.55;;;7.13;;
46897;SDS011;32646;50.958;6.258;2024-01-11T05:35:56;11.32;;;5.97;;
46897;SDS011;32646;50.958;6.258;2024-01-11T05:38:22;18.70;;;7.40;;
46897;SDS011;32646;50.958;6.258;2024-01-11T05:40:49;14.88;;;6.20;;
46897;SDS011;32646;50.958;6.258;2024-01-11T05:43:15;20.95;;;7.18;;
46897;SDS011;32646;50.958;6.258;2024-01-11T05:45:42;12.25;;;7.18;;
46897;SDS011;32646;50.958;6.258;2024-01-11T05:48:13;10.40;;;6.18;;
46897;SDS011;32646;50.958;6.258;2024-01-11T05:50:41;14.52;;;7.18;;
46897;SDS011;32646;50.958;6.258;2024-01-11T05:53:08;11.45;;;6.65;;
46897;SDS011;32646;50.958;6.258;2024-01-11T05:55:36;13.57;;;6.22;;
46897;SDS011;32646;50.958;6.258;2024-01-11T05:58:03;13.80;;;6.97;;
46897;SDS011;32646;50.958;6.258;2024-01-11T06:00:30;14.68;;;5.70;;
46897;SDS011;32646;50.958;6.258;2024-01-11T06:02:56;21.08;;;6.28;;
46897;SDS011;32646;50.958;6.258;2024-01-11T06:05:23;15.25;;;5.95;;
46897;SDS011;32646;50.958;6.258;2024-01-11T06:07:50;15.38;;;5.55;;
46897;SDS011;32646;50.958;6.258;2024-01-11T06:10:16;15.65;;;6.10;;
46897;SDS011;32646;50.958;6.258;2024-01-11T06:12:43;14.07;;;6.13;;
46897;SDS011;32646;50.958;6.258;2024-01-11T06:15:09;14.95;;;6.85;;
46897;SDS011;32646;50.958;6.258;2024-01-11T06:17:36;12.82;;;6.25;;
46897;SDS011;32646;50.958;6.258;2024-01-11T06:20:03;13.27;;;6.35;;
46897;SDS011;32646;50.958;6.258;2024-01-11T06:22:30;14.00;;;5.85;;
46897;SDS011;32646;50.958;6.258;2024-01-11T06:24:57;12.27;;;5.80;;
46897;SDS011;32646;50.958;6.258;2024-01-11T06:27:23;16.27;;;6.13;;
46897;SDS011;32646;50.958;6.258;2024-01-11T06:29:50;15.40;;;7.45;;
46897;SDS011;32646;50.958;6.258;2024-01-11T06:32:16;16.25;;;8.80;;
46897;SDS011;32646;50.958;6.258;2024-01-11T06:34:43;14.65;;;6.10;;
46897;SDS011;32646;50.958;6.258;2024-01-11T06:37:10;17.63;;;7.43;;
46897;SDS011;32646;50.958;6.258;2024-01-11T06:39:36;14.77;;;6.63;;
46897;SDS011;32646;50.958;6.258;2024-01-11T06:42:03;19.83;;;7.65;;
46897;SDS011;32646;50.958;6.258;2024-01-11T06:44:30;24.98;;;7.80;;
46897;SDS011;32646;50.958;6.258;2024-01-11T06:46:57;16.33;;;6.65;;
46897;SDS011;32646;50.958;6.258;2024-01-11T06:49:23;19.23;;;9.45;;
46897;SDS011;32646;50.958;6.258;2024-01-11T06:51:50;18.00;;;8.45;;
46897;SDS011;32646;50.958;6.258;2024-01-11T06:54:16;17.60;;;7.32;;
46897;SDS011;32646;50.958;6.258;2024-01-11T06:56:43;17.83;;;7.38;;
46897;SDS011;32646;50.958;6.258;2024-01-11T06:59:10;16.10;;;8.50;;
46897;SDS011;32646;50.958;6.258;2024-01-11T07:01:36;12.68;;;7.10;;
46897;SDS011;32646;50.958;6.258;2024-01-11T07:04:03;15.25;;;7.50;;
46897;SDS011;32646;50.958;6.258;2024-01-11T07:06:30;14.65;;;7.43;;
46897;SDS011;32646;50.958;6.258;2024-01-11T07:08:56;15.75;;;6.55;;
46897;SDS011;32646;50.958;6.258;2024-01-11T07:11:24;15.38;;;5.82;;
46897;SDS011;32646;50.958;6.258;2024-01-11T07:13:50;14.75;;;6.50;;
46897;SDS011;32646;50.958;6.258;2024-01-11T07:16:17;11.27;;;6.75;;
46897;SDS011;32646;50.958;6.258;2024-01-11T07:18:43;10.88;;;6.97;;
46897;SDS011;32646;50.958;6.258;2024-01-11T07:21:10;10.60;;;5.43;;
46897;SDS011;32646;50.958;6.258;2024-01-11T07:23:37;14.95;;;6.07;;
46897;SDS011;32646;50.958;6.258;2024-01-11T07:26:03;13.32;;;5.70;;
46897;SDS011;32646;50.958;6.258;2024-01-11T07:28:30;15.32;;;7.97;;
46897;SDS011;32646;50.958;6.258;2024-01-11T07:30:57;13.65;;;6.63;;
46897;SDS011;32646;50.958;6.258;2024-01-11T07:33:23;14.13;;;6.72;;
46897;SDS011;32646;50.958;6.258;2024-01-11T07:35:50;13.38;;;6.22;;
46897;SDS011;32646;50.958;6.258;2024-01-11T07:38:17;13.20;;;6.10;;
46897;SDS011;32646;50.958;6.258;2024-01-11T07:40:44;17.35;;;6.43;;
46897;SDS011;32646;50.958;6.258;2024-01-11T07:43:10;13.20;;;5.32;;
46897;SDS011;32646;50.958;6.258;2024-01-11T07:45:37;14.80;;;8.50;;
46897;SDS011;32646;50.958;6.258;2024-01-11T07:48:04;16.58;;;5.43;;
46897;SDS011;32646;50.958;6.258;2024-01-11T07:50:31;10.95;;;4.15;;
46897;SDS011;32646;50.958;6.258;2024-01-11T07:52:58;12.93;;;6.10;;
46897;SDS011;32646;50.958;6.258;2024-01-11T07:55:25;15.57;;;7.18;;
46897;SDS011;32646;50.958;6.258;2024-01-11T07:57:51;10.48;;;5.90;;
46897;SDS011;32646;50.958;6.258;2024-01-11T08:00:18;17.23;;;6.60;;
46897;SDS011;32646;50.958;6.258;2024-01-11T08:02:44;12.50;;;6.10;;
46897;SDS011;32646;50.958;6.258;2024-01-11T08:05:11;18.80;;;6.97;;
46897;SDS011;32646;50.958;6.258;2024-01-11T08:07:38;12.23;;;5.35;;
46897;SDS011;32646;50.958;6.258;2024-01-11T08:10:05;12.38;;;4.85;;
46897;SDS011;32646;50.958;6.258;2024-01-11T08:12:32;14.25;;;7.18;;
46897;SDS011;32646;50.958;6.258;2024-01-11T08:14:59;11.63;;;5.75;;
46897;SDS011;32646;50.958;6.258;2024-01-11T08:17:25;15.40;;;7.00;;
46897;SDS011;32646;50.958;6.258;2024-01-11T08:19:52;15.63;;;6.30;;
46897;SDS011;32646;50.958;6.258;2024-01-11T08:22:19;14.48;;;7.63;;
46897;SDS011;32646;50.958;6.258;2024-01-11T08:24:51;13.05;;;6.88;;
46897;SDS011;32646;50.958;6.258;2024-01-11T08:27:17;18.92;;;7.32;;
46897;SDS011;32646;50.958;6.258;2024-01-11T08:29:44;12.07;;;6.45;;
46897;SDS011;32646;50.958;6.258;2024-01-11T08:32:10;12.45;;;7.00;;
46897;SDS011;32646;50.958;6.258;2024-01-11T08:37:20;8.77;;;5.35;;
46897;SDS011;32646;50.958;6.258;2024-01-11T08:39:46;16.80;;;5.90;;
46897;SDS011;32646;50.958;6.258;2024-01-11T08:42:13;16.70;;;7.50;;
46897;SDS011;32646;50.958;6.258;2024-01-11T08:44:42;21.65;;;7.28;;
46897;SDS011;32646;50.958;6.258;2024-01-11T08:47:09;17.75;;;8.30;;
46897;SDS011;32646;50.958;6.258;2024-01-11T08:49:36;17.65;;;7.20;;
46897;SDS011;32646;50.958;6.258;2024-01-11T08:52:04;21.95;;;8.70;;
46897;SDS011;32646;50.958;6.258;2024-01-11T08:54:32;17.52;;;8.15;;
46897;SDS011;32646;50.958;6.258;2024-01-11T08:56:59;14.82;;;7.88;;
46897;SDS011;32646;50.958;6.258;2024-01-11T08:59:26;19.48;;;8.13;;
46897;SDS011;32646;50.958;6.258;2024-01-11T09:01:53;19.90;;;8.98;;
46897;SDS011;32646;50.958;6.258;2024-01-11T09:04:35;18.35;;;8.27;;
46897;SDS011;32646;50.958;6.258;2024-01-11T09:07:02;24.20;;;10.77;;
46897;SDS011;32646;50.958;6.258;2024-01-11T09:09:29;20.90;;;9.30;;
46897;SDS011;32646;50.958;6.258;2024-01-11T09:11:59;19.38;;;9.45;;
46897;SDS011;32646;50.958;6.258;2024-01-11T09:14:26;18.75;;;8.38;;
46897;SDS011;32646;50.958;6.258;2024-01-11T09:16:53;16.83;;;9.73;;
46897;SDS011;32646;50.958;6.258;2024-01-11T09:19:19;21.70;;;10.05;;
46897;SDS011;32646;50.958;6.258;2024-01-11T09:21:46;23.58;;;10.80;;
46897;SDS011;32646;50.958;6.258;2024-01-11T09:24:13;25.27;;;9.80;;
46897;SDS011;32646;50.958;6.258;2024-01-11T09:26:39;19.98;;;11.10;;
46897;SDS011;32646;50.958;6.258;2024-01-11T09:29:06;24.40;;;10.82;;
46897;SDS011;32646;50.958;6.258;2024-01-11T09:31:33;16.80;;;8.75;;
46897;SDS011;32646;50.958;6.258;2024-01-11T09:33:59;24.50;;;11.20;;
46897;SDS011;32646;50.958;6.258;2024-01-11T09:36:26;26.77;;;11.52;;
46897;SDS011;32646;50.958;6.258;2024-01-11T09:38:53;26.08;;;9.88;;
46897;SDS011;32646;50.958;6.258;2024-01-11T09:41:20;22.63;;;11.13;;
46897;SDS011;32646;50.958;6.258;2024-01-11T09:43:46;24.85;;;11.88;;
46897;SDS011;32646;50.958;6.258;2024-01-11T09:46:19;26.45;;;14.40;;
46897;SDS011;32646;50.958;6.258;2024-01-11T09:48:46;22.75;;;10.82;;
46897;SDS011;32646;50.958;6.258;2024-01-11T09:51:15;24.35;;;10.27;;
46897;SDS011;32646;50.958;6.258;2024-01-11T09:53:42;21.88;;;10.43;;
46897;SDS011;32646;50.958;6.258;2024-01-11T09:56:09;32.72;;;12.35;;
46897;SDS011;32646;50.958;6.258;2024-01-11T09:58:36;23.67;;;12.23;;
46897;SDS011;32646;50.958;6.258;2024-01-11T10:01:07;28.33;;;12.48;;
46897;SDS011;32646;50.958;6.258;2024-01-11T10:03:35;23.27;;;11.68;;
46897;SDS011;32646;50.958;6.258;2024-01-11T10:06:02;27.05;;;12.07;;
46897;SDS011;32646;50.958;6.258;2024-01-11T10:08:30;23.67;;;12.18;;
46897;SDS011;32646;50.958;6.258;2024-01-11T10:10:58;30.00;;;12.32;;
46897;SDS011;32646;50.958;6.258;2024-01-11T10:13:27;27.02;;;11.80;;
46897;SDS011;32646;50.958;6.258;2024-01-11T10:16:07;25.40;;;12.30;;
46897;SDS011;32646;50.958;6.258;2024-01-11T10:18:35;31.83;;;13.23;;
46897;SDS011;32646;50.958;6.258;2024-01-11T10:21:03;24.00;;;12.38;;
46897;SDS011;32646;50.958;6.258;2024-01-11T10:23:30;22.55;;;11.25;;
46897;SDS011;32646;50.958;6.258;2024-01-11T10:25:59;27.75;;;15.02;;
46897;SDS011;32646;50.958;6.258;2024-01-11T10:28:26;28.10;;;13.73;;
46897;SDS011;32646;50.958;6.258;2024-01-11T10:30:53;31.65;;;14.00;;
46897;SDS011;32646;50.958;6.258;2024-01-11T10:33:21;30.15;;;15.43;;
46897;SDS011;32646;50.958;6.258;2024-01-11T10:35:48;28.00;;;13.57;;
46897;SDS011;32646;50.958;6.258;2024-01-11T10:38:15;30.15;;;13.60;;
46897;SDS011;32646;50.958;6.258;2024-01-11T10:40:43;29.90;;;16.27;;
46897;SDS011;32646;50.958;6.258;2024-01-11T10:43:10;26.40;;;13.45;;
46897;SDS011;32646;50.958;6.258;2024-01-11T10:45:37;25.23;;;13.73;;
46897;SDS011;32646;50.958;6.258;2024-01-11T10:48:12;34.03;;;14.25;;
46897;SDS011;32646;50.958;6.258;2024-01-11T10:50:44;25.83;;;12.93;;
46897;SDS011;32646;50.958;6.258;2024-01-11T10:56:16;28.75;;;12.93;;
46897;SDS011;32646;50.958;6.258;2024-01-11T11:01:10;24.23;;;11.30;;
46897;SDS011;32646;50.958;6.258;2024-01-11T11:03:38;29.88;;;12.73;;
46897;SDS011;32646;50.958;6.258;2024-01-11T11:06:06;24.52;;;13.77;;
46897;SDS011;32646;50.958;6.258;2024-01-11T11:08:35;30.05;;;14.05;;
46897;SDS011;32646;50.958;6.258;2024-01-11T11:11:03;31.33;;;13.52;;
46897;SDS011;32646;50.958;6.258;2024-01-11T11:13:30;25.58;;;12.73;;
46897;SDS011;32646;50.958;6.258;2024-01-11T11:15:58;27.08;;;12.65;;
46897;SDS011;32646;50.958;6.258;2024-01-11T11:18:27;29.05;;;15.13;;
46897;SDS011;32646;50.958;6.258;2024-01-11T11:20:54;30.88;;;14.43;;
46897;SDS011;32646;50.958;6.258;2024-01-11T11:23:21;26.80;;;13.77;;
46897;SDS011;32646;50.958;6.258;2024-01-11T11:25:48;29.55;;;13.10;;
46897;SDS011;32646;50.958;6.258;2024-01-11T11:28:15;28.48;;;12.15;;
46897;SDS011;32646;50.958;6.258;2024-01-11T11:30:44;31.90;;;14.02;;
46897;SDS011;32646;50.958;6.258;2024-01-11T11:33:22;32.53;;;14.48;;
46897;SDS011;32646;50.958;6.258;2024-01-11T11:35:53;28.67;;;11.93;;
46897;SDS011;32646;50.958;6.258;2024-01-11T11:38:23;20.80;;;11.38;;
46897;SDS011;32646;50.958;6.258;2024-01-11T11:40:54;30.98;;;12.60;;
46897;SDS011;32646;50.958;6.258;2024-01-11T11:43:23;32.28;;;13.32;;
46897;SDS011;32646;50.958;6.258;2024-01-11T11:45:50;31.88;;;15.68;;
46897;SDS011;32646;50.958;6.258;2024-01-11T11:51:09;30.58;;;13.52;;
46897;SDS011;32646;50.958;6.258;2024-01-11T11:53:37;27.17;;;13.00;;
46897;SDS011;32646;50.958;6.258;2024-01-11T11:56:06;26.70;;;12.35;;
46897;SDS011;32646;50.958;6.258;2024-01-11T11:58:34;31.42;;;14.00;;
46897;SDS011;32646;50.958;6.258;2024-01-11T12:01:01;27.35;;;13.95;;
46897;SDS011;32646;50.958;6.258;2024-01-11T12:03:33;29.95;;;13.77;;
46897;SDS011;32646;50.958;6.258;2024-01-11T12:06:00;31.10;;;14.05;;
46897;SDS011;32646;50.958;6.258;2024-01-11T12:08:27;25.48;;;13.70;;
46897;SDS011;32646;50.958;6.258;2024-01-11T12:10:54;27.45;;;12.98;;
46897;SDS011;32646;50.958;6.258;2024-01-11T12:13:21;28.83;;;13.88;;
46897;SDS011;32646;50.958;6.258;2024-01-11T12:15:48;29.15;;;14.88;;
46897;SDS011;32646;50.958;6.258;2024-01-11T12:18:15;24.02;;;12.07;;
46897;SDS011;32646;50.958;6.258;2024-01-11T12:20:42;23.80;;;12.13;;
46897;SDS011;32646;50.958;6.258;2024-01-11T12:23:09;30.35;;;12.88;;
46897;SDS011;32646;50.958;6.258;2024-01-11T12:25:36;35.75;;;14.73;;
46897;SDS011;32646;50.958;6.258;2024-01-11T12:28:03;32.60;;;13.30;;
46897;SDS011;32646;50.958;6.258;2024-01-11T12:30:31;27.73;;;12.32;;
46897;SDS011;32646;50.958;6.258;2024-01-11T12:32:58;27.48;;;12.07;;
46897;SDS011;32646;50.958;6.258;2024-01-11T12:35:26;29.88;;;13.95;;
46897;SDS011;32646;50.958;6.258;2024-01-11T12:37:53;29.08;;;13.35;;
46897;SDS011;32646;50.958;6.258;2024-01-11T12:40:27;32.75;;;14.02;;
46897;SDS011;32646;50.958;6.258;2024-01-11T12:42:54;30.05;;;13.95;;
46897;SDS011;32646;50.958;6.258;2024-01-11T12:45:23;26.15;;;12.77;;
46897;SDS011;32646;50.958;6.258;2024-01-11T12:47:50;25.15;;;12.65;;
46897;SDS011;32646;50.958;6.258;2024-01-11T12:50:17;30.20;;;14.25;;
46897;SDS011;32646;50.958;6.258;2024-01-11T12:52:44;27.00;;;12.90;;
46897;SDS011;32646;50.958;6.258;2024-01-11T12:55:17;27.35;;;13.40;;
46897;SDS011;32646;50.958;6.258;2024-01-11T12:57:45;28.95;;;13.35;;
46897;SDS011;32646;50.958;6.258;2024-01-11T13:00:15;23.27;;;12.20;;
46897;SDS011;32646;50.958;6.258;2024-01-11T13:02:42;23.83;;;14.00;;
46897;SDS011;32646;50.958;6.258;2024-01-11T13:05:08;29.58;;;13.90;;
46897;SDS011;32646;50.958;6.258;2024-01-11T13:07:38;32.80;;;14.75;;
46897;SDS011;32646;50.958;6.258;2024-01-11T13:10:04;25.55;;;13.10;;
46897;SDS011;32646;50.958;6.258;2024-01-11T13:12:31;28.00;;;13.00;;
46897;SDS011;32646;50.958;6.258;2024-01-11T13:14:58;33.70;;;13.82;;
46897;SDS011;32646;50.958;6.258;2024-01-11T13:17:25;28.13;;;13.20;;
46897;SDS011;32646;50.958;6.258;2024-01-11T13:19:51;26.00;;;11.52;;
46897;SDS011;32646;50.958;6.258;2024-01-11T13:22:18;26.50;;;12.82;;
46897;SDS011;32646;50.958;6.258;2024-01-11T13:24:44;28.98;;;13.18;;
46897;SDS011;32646;50.958;6.258;2024-01-11T13:27:11;28.33;;;13.23;;
46897;SDS011;32646;50.958;6.258;2024-01-11T13:29:38;25.65;;;12.65;;
46897;SDS011;32646;50.958;6.258;2024-01-11T13:32:04;31.40;;;13.13;;
46897;SDS011;32646;50.958;6.258;2024-01-11T13:34:32;27.85;;;13.32;;
46897;SDS011;32646;50.958;6.258;2024-01-11T13:36:58;31.63;;;13.60;;
46897;SDS011;32646;50.958;6.258;2024-01-11T13:39:25;31.35;;;13.30;;
46897;SDS011;32646;50.958;6.258;2024-01-11T13:41:51;33.38;;;14.45;;
46897;SDS011;32646;50.958;6.258;2024-01-11T13:44:18;33.13;;;15.57;;
46897;SDS011;32646;50.958;6.258;2024-01-11T13:46:48;29.20;;;12.32;;
46897;SDS011;32646;50.958;6.258;2024-01-11T13:49:14;31.45;;;14.38;;
46897;SDS011;32646;50.958;6.258;2024-01-11T13:51:41;26.80;;;12.75;;
46897;SDS011;32646;50.958;6.258;2024-01-11T13:54:22;27.90;;;12.57;;
46897;SDS011;32646;50.958;6.258;2024-01-11T13:56:49;24.38;;;11.43;;
46897;SDS011;32646;50.958;6.258;2024-01-11T13:59:16;26.90;;;11.73;;
46897;SDS011;32646;50.958;6.258;2024-01-11T14:01:43;24.45;;;11.68;;
46897;SDS011;32646;50.958;6.258;2024-01-11T14:04:10;30.60;;;12.32;;
46897;SDS011;32646;50.958;6.258;2024-01-11T14:06:36;28.45;;;11.77;;
46897;SDS011;32646;50.958;6.258;2024-01-11T14:09:03;25.25;;;12.02;;
46897;SDS011;32646;50.958;6.258;2024-01-11T14:11:30;26.15;;;10.75;;
46897;SDS011;32646;50.958;6.258;2024-01-11T14:13:57;24.40;;;11.27;;
46897;SDS011;32646;50.958;6.258;2024-01-11T14:16:23;19.70;;;11.18;;
46897;SDS011;32646;50.958;6.258;2024-01-11T14:18:52;23.27;;;12.23;;
46897;SDS011;32646;50.958;6.258;2024-01-11T14:21:19;22.60;;;11.30;;
46897;SDS011;32646;50.958;6.258;2024-01-11T14:23:46;20.70;;;10.30;;
46897;SDS011;32646;50.958;6.258;2024-01-11T14:26:12;19.33;;;10.23;;
46897;SDS011;32646;50.958;6.258;2024-01-11T14:28:39;24.65;;;10.55;;
46897;SDS011;32646;50.958;6.258;2024-01-11T14:31:06;22.85;;;10.57;;
46897;SDS011;32646;50.958;6.258;2024-01-11T14:33:32;23.25;;;10.50;;
46897;SDS011;32646;50.958;6.258;2024-01-11T14:35:59;22.38;;;10.50;;
46897;SDS011;32646;50.958;6.258;2024-01-11T14:38:25;23.67;;;10.15;;
46897;SDS011;32646;50.958;6.258;2024-01-11T14:40:52;18.88;;;9.85;;
46897;SDS011;32646;50.958;6.258;2024-01-11T14:43:19;19.48;;;9.18;;